sensor_id;sensor_type;location;lat;lon;timestamp;P1;durP1;ratioP1;P2;durP2;ratioP2
69401;SDS011;56589;51.992;5.924;2023-07-20T00:01:10;8.93;;;4.47;;
69401;SDS011;56589;51.992;5.924;2023-07-20T00:03:38;6.18;;;4.18;;
69401;SDS011;56589;51.992;5.924;2023-07-20T00:06:04;9.25;;;5.05;;
69401;SDS011;56589;51.992;5.924;2023-07-20T00:08:30;8.82;;;4.55;;
69401;SDS011;56589;51.992;5.924;2023-07-20T00:10:56;7.82;;;4.57;;
69401;SDS011;56589;51.992;5.924;2023-07-20T00:13:22;8.77;;;4.53;;
69401;SDS011;56589;51.992;5.924;2023-07-20T00:15:48;6.75;;;4.75;;
69401;SDS011;56589;51.992;5.924;2023-07-20T00:18:14;5.25;;;4.65;;
69401;SDS011;56589;51.992;5.924;2023-07-20T00:20:43;7.82;;;4.65;;
69401;SDS011;56589;51.992;5.924;2023-07-20T00:23:08;6.35;;;4.85;;
69401;SDS011;56589;51.992;5.924;2023-07-20T00:25:34;8.15;;;4.93;;
69401;SDS011;56589;51.992;5.924;2023-07-20T00:28:01;13.25;;;4.95;;
69401;SDS011;56589;51.992;5.924;2023-07-20T00:30:27;6.95;;;4.80;;
69401;SDS011;56589;51.992;5.924;2023-07-20T00:32:52;8.65;;;5.07;;
69401;SDS011;56589;51.992;5.924;2023-07-20T00:35:18;11.23;;;4.30;;
69401;SDS011;56589;51.992;5.924;2023-07-20T00:37:47;6.50;;;4.47;;
69401;SDS011;56589;51.992;5.924;2023-07-20T00:40:13;8.18;;;5.10;;
69401;SDS011;56589;51.992;5.924;2023-07-20T00:42:39;7.10;;;4.65;;
69401;SDS011;56589;51.992;5.924;2023-07-20T00:45:05;9.25;;;4.85;;
69401;SDS011;56589;51.992;5.924;2023-07-20T00:47:32;5.60;;;4.32;;
69401;SDS011;56589;51.992;5.924;2023-07-20T00:49:58;7.40;;;4.13;;
69401;SDS011;56589;51.992;5.924;2023-07-20T00:52:24;10.18;;;5.10;;
69401;SDS011;56589;51.992;5.924;2023-07-20T00:54:56;6.20;;;4.60;;
69401;SDS011;56589;51.992;5.924;2023-07-20T00:57:22;6.18;;;4.25;;
69401;SDS011;56589;51.992;5.924;2023-07-20T00:59:49;6.65;;;4.03;;
69401;SDS011;56589;51.992;5.924;2023-07-20T01:02:15;6.40;;;4.03;;
69401;SDS011;56589;51.992;5.924;2023-07-20T01:04:41;7.65;;;4.07;;
69401;SDS011;56589;51.992;5.924;2023-07-20T01:07:09;5.70;;;4.32;;
69401;SDS011;56589;51.992;5.924;2023-07-20T01:09:44;8.75;;;4.32;;
69401;SDS011;56589;51.992;5.924;2023-07-20T01:12:22;8.13;;;4.35;;
69401;SDS011;56589;51.992;5.924;2023-07-20T01:14:53;6.85;;;4.40;;
69401;SDS011;56589;51.992;5.924;2023-07-20T01:17:20;7.20;;;4.15;;
69401;SDS011;56589;51.992;5.924;2023-07-20T01:19:45;5.28;;;3.90;;
69401;SDS011;56589;51.992;5.924;2023-07-20T01:22:15;6.68;;;3.90;;
69401;SDS011;56589;51.992;5.924;2023-07-20T01:25:30;8.98;;;3.67;;
69401;SDS011;56589;51.992;5.924;2023-07-20T01:28:28;5.53;;;3.58;;
69401;SDS011;56589;51.992;5.924;2023-07-20T01:31:21;6.35;;;3.80;;
69401;SDS011;56589;51.992;5.924;2023-07-20T01:33:50;6.32;;;3.92;;
69401;SDS011;56589;51.992;5.924;2023-07-20T01:36:21;6.78;;;3.78;;
69401;SDS011;56589;51.992;5.924;2023-07-20T01:38:51;7.07;;;3.42;;
69401;SDS011;56589;51.992;5.924;2023-07-20T01:41:18;5.35;;;3.60;;
69401;SDS011;56589;51.992;5.924;2023-07-20T01:43:44;9.90;;;4.10;;
69401;SDS011;56589;51.992;5.924;2023-07-20T01:46:10;5.05;;;3.83;;
69401;SDS011;56589;51.992;5.924;2023-07-20T01:48:39;4.88;;;3.70;;
69401;SDS011;56589;51.992;5.924;2023-07-20T01:51:05;5.97;;;3.90;;
69401;SDS011;56589;51.992;5.924;2023-07-20T01:53:31;7.72;;;4.38;;
69401;SDS011;56589;51.992;5.924;2023-07-20T01:55:57;6.65;;;4.28;;
69401;SDS011;56589;51.992;5.924;2023-07-20T01:58:23;7.47;;;3.95;;
69401;SDS011;56589;51.992;5.924;2023-07-20T02:00:49;7.32;;;3.60;;
69401;SDS011;56589;51.992;5.924;2023-07-20T02:03:14;5.20;;;3.78;;
69401;SDS011;56589;51.992;5.924;2023-07-20T02:05:44;5.25;;;3.80;;
69401;SDS011;56589;51.992;5.924;2023-07-20T02:08:10;8.35;;;3.55;;
69401;SDS011;56589;51.992;5.924;2023-07-20T02:10:36;6.18;;;3.75;;
69401;SDS011;56589;51.992;5.924;2023-07-20T02:13:02;4.15;;;3.45;;
69401;SDS011;56589;51.992;5.924;2023-07-20T02:15:28;7.00;;;3.58;;
69401;SDS011;56589;51.992;5.924;2023-07-20T02:17:54;4.97;;;3.33;;
69401;SDS011;56589;51.992;5.924;2023-07-20T02:20:20;5.50;;;2.95;;
69401;SDS011;56589;51.992;5.924;2023-07-20T02:22:49;3.55;;;2.58;;
69401;SDS011;56589;51.992;5.924;2023-07-20T02:25:14;6.88;;;2.90;;
69401;SDS011;56589;51.992;5.924;2023-07-20T02:27:40;4.55;;;2.50;;
69401;SDS011;56589;51.992;5.924;2023-07-20T02:30:07;5.15;;;2.40;;
69401;SDS011;56589;51.992;5.924;2023-07-20T02:32:33;3.35;;;2.22;;
69401;SDS011;56589;51.992;5.924;2023-07-20T02:34:59;6.32;;;2.13;;
69401;SDS011;56589;51.992;5.924;2023-07-20T02:37:25;6.50;;;2.00;;
69401;SDS011;56589;51.992;5.924;2023-07-20T02:39:54;2.50;;;1.90;;
69401;SDS011;56589;51.992;5.924;2023-07-20T02:42:19;5.55;;;1.85;;
69401;SDS011;56589;51.992;5.924;2023-07-20T02:44:45;2.63;;;1.70;;
69401;SDS011;56589;51.992;5.924;2023-07-20T02:47:11;3.33;;;1.70;;
69401;SDS011;56589;51.992;5.924;2023-07-20T02:49:37;1.95;;;1.33;;
69401;SDS011;56589;51.992;5.924;2023-07-20T02:52:04;3.60;;;1.95;;
69401;SDS011;56589;51.992;5.924;2023-07-20T02:54:30;4.00;;;2.00;;
69401;SDS011;56589;51.992;5.924;2023-07-20T02:56:59;2.35;;;1.98;;
69401;SDS011;56589;51.992;5.924;2023-07-20T02:59:24;2.83;;;1.90;;
69401;SDS011;56589;51.992;5.924;2023-07-20T03:01:50;2.70;;;1.70;;
69401;SDS011;56589;51.992;5.924;2023-07-20T03:04:16;3.30;;;2.17;;
69401;SDS011;56589;51.992;5.924;2023-07-20T03:06:42;3.63;;;1.70;;
69401;SDS011;56589;51.992;5.924;2023-07-20T03:09:08;2.65;;;1.80;;
69401;SDS011;56589;51.992;5.924;2023-07-20T03:11:34;2.20;;;1.80;;
69401;SDS011;56589;51.992;5.924;2023-07-20T03:14:02;3.50;;;2.03;;
69401;SDS011;56589;51.992;5.924;2023-07-20T03:16:28;2.75;;;1.88;;
69401;SDS011;56589;51.992;5.924;2023-07-20T03:18:54;5.88;;;1.90;;
69401;SDS011;56589;51.992;5.924;2023-07-20T03:21:20;2.28;;;1.52;;
69401;SDS011;56589;51.992;5.924;2023-07-20T03:23:46;2.75;;;1.45;;
69401;SDS011;56589;51.992;5.924;2023-07-20T03:26:11;3.75;;;1.88;;
69401;SDS011;56589;51.992;5.924;2023-07-20T03:28:37;4.82;;;1.58;;
69401;SDS011;56589;51.992;5.924;2023-07-20T03:31:06;2.20;;;1.40;;
69401;SDS011;56589;51.992;5.924;2023-07-20T03:33:32;2.05;;;1.45;;
69401;SDS011;56589;51.992;5.924;2023-07-20T03:35:59;1.98;;;1.65;;
69401;SDS011;56589;51.992;5.924;2023-07-20T03:38:25;4.22;;;1.92;;
69401;SDS011;56589;51.992;5.924;2023-07-20T03:40:53;3.13;;;1.83;;
69401;SDS011;56589;51.992;5.924;2023-07-20T03:43:21;2.90;;;2.20;;
69401;SDS011;56589;51.992;5.924;2023-07-20T03:45:48;3.85;;;2.10;;
69401;SDS011;56589;51.992;5.924;2023-07-20T03:48:18;2.92;;;2.22;;
69401;SDS011;56589;51.992;5.924;2023-07-20T03:50:46;2.42;;;1.80;;
69401;SDS011;56589;51.992;5.924;2023-07-20T03:53:13;1.63;;;1.42;;
69401;SDS011;56589;51.992;5.924;2023-07-20T03:55:40;2.47;;;1.73;;
69401;SDS011;56589;51.992;5.924;2023-07-20T03:58:09;1.92;;;1.70;;
69401;SDS011;56589;51.992;5.924;2023-07-20T04:00:35;2.17;;;1.60;;
69401;SDS011;56589;51.992;5.924;2023-07-20T04:03:01;3.55;;;1.60;;
69401;SDS011;56589;51.992;5.924;2023-07-20T04:05:29;2.70;;;1.60;;
69401;SDS011;56589;51.992;5.924;2023-07-20T04:07:55;3.28;;;1.75;;
69401;SDS011;56589;51.992;5.924;2023-07-20T04:10:21;2.00;;;1.60;;
69401;SDS011;56589;51.992;5.924;2023-07-20T04:12:47;2.33;;;1.65;;
69401;SDS011;56589;51.992;5.924;2023-07-20T04:15:13;1.50;;;1.40;;
69401;SDS011;56589;51.992;5.924;2023-07-20T04:17:39;2.00;;;1.60;;
69401;SDS011;56589;51.992;5.924;2023-07-20T04:20:05;2.95;;;1.80;;
69401;SDS011;56589;51.992;5.924;2023-07-20T04:22:35;2.30;;;1.85;;
69401;SDS011;56589;51.992;5.924;2023-07-20T04:25:02;2.30;;;1.77;;
69401;SDS011;56589;51.992;5.924;2023-07-20T04:27:28;2.70;;;1.52;;
69401;SDS011;56589;51.992;5.924;2023-07-20T04:29:54;2.20;;;1.38;;
69401;SDS011;56589;51.992;5.924;2023-07-20T04:32:21;2.08;;;1.63;;
69401;SDS011;56589;51.992;5.924;2023-07-20T04:34:47;3.10;;;1.65;;
69401;SDS011;56589;51.992;5.924;2023-07-20T04:37:12;1.67;;;1.45;;
69401;SDS011;56589;51.992;5.924;2023-07-20T04:39:41;1.55;;;1.40;;
69401;SDS011;56589;51.992;5.924;2023-07-20T04:42:07;1.52;;;1.40;;
69401;SDS011;56589;51.992;5.924;2023-07-20T04:44:33;1.73;;;1.45;;
69401;SDS011;56589;51.992;5.924;2023-07-20T04:46:58;1.35;;;1.23;;
69401;SDS011;56589;51.992;5.924;2023-07-20T04:49:24;2.03;;;1.25;;
69401;SDS011;56589;51.992;5.924;2023-07-20T04:51:50;1.60;;;1.08;;
69401;SDS011;56589;51.992;5.924;2023-07-20T04:54:16;1.65;;;1.15;;
69401;SDS011;56589;51.992;5.924;2023-07-20T04:56:45;1.58;;;0.93;;
69401;SDS011;56589;51.992;5.924;2023-07-20T04:59:11;1.70;;;1.15;;
69401;SDS011;56589;51.992;5.924;2023-07-20T05:01:37;0.90;;;0.75;;
69401;SDS011;56589;51.992;5.924;2023-07-20T05:04:03;1.10;;;1.00;;
69401;SDS011;56589;51.992;5.924;2023-07-20T05:06:29;1.40;;;1.13;;
69401;SDS011;56589;51.992;5.924;2023-07-20T05:08:55;2.05;;;1.05;;
69401;SDS011;56589;51.992;5.924;2023-07-20T05:11:21;1.10;;;1.00;;
69401;SDS011;56589;51.992;5.924;2023-07-20T05:13:49;1.05;;;0.95;;
69401;SDS011;56589;51.992;5.924;2023-07-20T05:16:15;2.17;;;0.80;;
69401;SDS011;56589;51.992;5.924;2023-07-20T05:18:41;1.33;;;0.90;;
69401;SDS011;56589;51.992;5.924;2023-07-20T05:21:07;1.20;;;0.90;;
69401;SDS011;56589;51.992;5.924;2023-07-20T05:23:33;1.50;;;1.10;;
69401;SDS011;56589;51.992;5.924;2023-07-20T05:25:59;2.00;;;0.95;;
69401;SDS011;56589;51.992;5.924;2023-07-20T05:28:25;1.20;;;0.90;;
69401;SDS011;56589;51.992;5.924;2023-07-20T05:30:55;1.75;;;0.80;;
69401;SDS011;56589;51.992;5.924;2023-07-20T05:33:21;0.82;;;0.73;;
69401;SDS011;56589;51.992;5.924;2023-07-20T05:35:47;1.45;;;0.90;;
69401;SDS011;56589;51.992;5.924;2023-07-20T05:38:13;1.40;;;1.15;;
69401;SDS011;56589;51.992;5.924;2023-07-20T05:40:40;1.23;;;0.70;;
69401;SDS011;56589;51.992;5.924;2023-07-20T05:43:07;2.60;;;0.90;;
69401;SDS011;56589;51.992;5.924;2023-07-20T05:45:32;0.80;;;0.80;;
69401;SDS011;56589;51.992;5.924;2023-07-20T05:48:01;1.08;;;0.98;;
69401;SDS011;56589;51.992;5.924;2023-07-20T05:50:27;2.33;;;0.95;;
69401;SDS011;56589;51.992;5.924;2023-07-20T05:52:53;0.82;;;0.75;;
69401;SDS011;56589;51.992;5.924;2023-07-20T05:55:19;0.75;;;0.65;;
69401;SDS011;56589;51.992;5.924;2023-07-20T05:57:45;1.25;;;0.60;;
69401;SDS011;56589;51.992;5.924;2023-07-20T06:00:12;1.05;;;0.70;;
69401;SDS011;56589;51.992;5.924;2023-07-20T06:02:39;1.40;;;0.68;;
69401;SDS011;56589;51.992;5.924;2023-07-20T06:05:08;1.40;;;0.70;;
69401;SDS011;56589;51.992;5.924;2023-07-20T06:07:35;0.52;;;0.50;;
69401;SDS011;56589;51.992;5.924;2023-07-20T06:10:01;2.90;;;0.60;;
69401;SDS011;56589;51.992;5.924;2023-07-20T06:12:27;1.98;;;0.50;;
69401;SDS011;56589;51.992;5.924;2023-07-20T06:14:53;2.88;;;0.43;;
69401;SDS011;56589;51.992;5.924;2023-07-20T06:17:19;0.82;;;0.40;;
69401;SDS011;56589;51.992;5.924;2023-07-20T06:19:45;1.58;;;0.50;;
69401;SDS011;56589;51.992;5.924;2023-07-20T06:22:13;0.73;;;0.40;;
69401;SDS011;56589;51.992;5.924;2023-07-20T06:24:39;0.60;;;0.32;;
69401;SDS011;56589;51.992;5.924;2023-07-20T06:27:05;1.08;;;0.40;;
69401;SDS011;56589;51.992;5.924;2023-07-20T06:29:31;0.60;;;0.50;;
69401;SDS011;56589;51.992;5.924;2023-07-20T06:31:57;0.90;;;0.47;;
69401;SDS011;56589;51.992;5.924;2023-07-20T06:34:23;0.93;;;0.40;;
69401;SDS011;56589;51.992;5.924;2023-07-20T06:36:49;0.45;;;0.30;;
69401;SDS011;56589;51.992;5.924;2023-07-20T06:39:17;0.68;;;0.35;;
69401;SDS011;56589;51.992;5.924;2023-07-20T06:41:43;0.88;;;0.38;;
69401;SDS011;56589;51.992;5.924;2023-07-20T06:44:09;1.55;;;0.50;;
69401;SDS011;56589;51.992;5.924;2023-07-20T06:46:35;1.08;;;0.45;;
69401;SDS011;56589;51.992;5.924;2023-07-20T06:49:00;1.27;;;0.50;;
69401;SDS011;56589;51.992;5.924;2023-07-20T06:51:26;0.98;;;0.50;;
69401;SDS011;56589;51.992;5.924;2023-07-20T06:53:52;0.90;;;0.45;;
69401;SDS011;56589;51.992;5.924;2023-07-20T06:56:21;0.93;;;0.32;;
69401;SDS011;56589;51.992;5.924;2023-07-20T06:58:46;1.08;;;0.30;;
69401;SDS011;56589;51.992;5.924;2023-07-20T07:01:13;2.33;;;0.38;;
69401;SDS011;56589;51.992;5.924;2023-07-20T07:03:39;1.55;;;0.60;;
69401;SDS011;56589;51.992;5.924;2023-07-20T07:06:05;1.20;;;0.30;;
69401;SDS011;56589;51.992;5.924;2023-07-20T07:08:30;0.80;;;0.20;;
69401;SDS011;56589;51.992;5.924;2023-07-20T07:10:56;1.02;;;0.25;;
69401;SDS011;56589;51.992;5.924;2023-07-20T07:13:25;1.38;;;0.38;;
69401;SDS011;56589;51.992;5.924;2023-07-20T07:15:51;0.43;;;0.20;;
69401;SDS011;56589;51.992;5.924;2023-07-20T07:18:16;0.82;;;0.40;;
69401;SDS011;56589;51.992;5.924;2023-07-20T07:20:49;2.75;;;0.30;;
69401;SDS011;56589;51.992;5.924;2023-07-20T07:23:16;0.93;;;0.13;;
69401;SDS011;56589;51.992;5.924;2023-07-20T07:25:42;0.52;;;0.30;;
69401;SDS011;56589;51.992;5.924;2023-07-20T07:28:08;0.68;;;0.22;;
69401;SDS011;56589;51.992;5.924;2023-07-20T07:30:36;0.77;;;0.30;;
69401;SDS011;56589;51.992;5.924;2023-07-20T07:33:02;0.40;;;0.20;;
69401;SDS011;56589;51.992;5.924;2023-07-20T07:35:28;0.38;;;0.25;;
69401;SDS011;56589;51.992;5.924;2023-07-20T07:37:54;1.55;;;0.73;;
69401;SDS011;56589;51.992;5.924;2023-07-20T07:40:20;0.50;;;0.20;;
69401;SDS011;56589;51.992;5.924;2023-07-20T07:42:46;0.70;;;0.30;;
69401;SDS011;56589;51.992;5.924;2023-07-20T07:45:11;0.70;;;0.30;;
69401;SDS011;56589;51.992;5.924;2023-07-20T07:47:40;1.45;;;0.25;;
69401;SDS011;56589;51.992;5.924;2023-07-20T07:50:06;1.13;;;0.40;;
69401;SDS011;56589;51.992;5.924;2023-07-20T07:52:33;0.85;;;0.28;;
69401;SDS011;56589;51.992;5.924;2023-07-20T07:54:58;0.57;;;0.20;;
69401;SDS011;56589;51.992;5.924;2023-07-20T07:57:24;0.82;;;0.40;;
69401;SDS011;56589;51.992;5.924;2023-07-20T07:59:50;0.25;;;0.25;;
69401;SDS011;56589;51.992;5.924;2023-07-20T08:02:16;0.77;;;0.40;;
69401;SDS011;56589;51.992;5.924;2023-07-20T08:04:44;0.50;;;0.20;;
69401;SDS011;56589;51.992;5.924;2023-07-20T08:07:10;1.08;;;0.40;;
69401;SDS011;56589;51.992;5.924;2023-07-20T08:09:36;0.50;;;0.30;;
69401;SDS011;56589;51.992;5.924;2023-07-20T08:12:02;1.67;;;0.30;;
69401;SDS011;56589;51.992;5.924;2023-07-20T08:14:29;2.05;;;0.20;;
69401;SDS011;56589;51.992;5.924;2023-07-20T08:16:55;0.52;;;0.20;;
69401;SDS011;56589;51.992;5.924;2023-07-20T08:19:21;3.20;;;0.20;;
69401;SDS011;56589;51.992;5.924;2023-07-20T08:21:50;0.45;;;0.28;;
69401;SDS011;56589;51.992;5.924;2023-07-20T08:24:15;2.03;;;0.50;;
69401;SDS011;56589;51.992;5.924;2023-07-20T08:26:41;1.45;;;0.43;;
69401;SDS011;56589;51.992;5.924;2023-07-20T08:29:07;0.47;;;0.38;;
69401;SDS011;56589;51.992;5.924;2023-07-20T08:31:33;1.02;;;0.30;;
69401;SDS011;56589;51.992;5.924;2023-07-20T08:33:59;0.75;;;0.20;;
69401;SDS011;56589;51.992;5.924;2023-07-20T08:36:24;0.63;;;0.22;;
69401;SDS011;56589;51.992;5.924;2023-07-20T08:38:53;0.77;;;0.30;;
69401;SDS011;56589;51.992;5.924;2023-07-20T08:41:19;0.25;;;0.20;;
69401;SDS011;56589;51.992;5.924;2023-07-20T08:43:45;1.17;;;0.50;;
69401;SDS011;56589;51.992;5.924;2023-07-20T08:46:13;0.45;;;0.20;;
69401;SDS011;56589;51.992;5.924;2023-07-20T08:48:41;0.60;;;0.32;;
69401;SDS011;56589;51.992;5.924;2023-07-20T08:51:09;0.98;;;0.43;;
69401;SDS011;56589;51.992;5.924;2023-07-20T08:53:36;1.38;;;0.47;;
69401;SDS011;56589;51.992;5.924;2023-07-20T08:56:05;2.55;;;0.40;;
69401;SDS011;56589;51.992;5.924;2023-07-20T08:58:34;1.27;;;0.32;;
69401;SDS011;56589;51.992;5.924;2023-07-20T09:01:01;1.55;;;0.30;;
69401;SDS011;56589;51.992;5.924;2023-07-20T09:03:28;1.83;;;0.40;;
69401;SDS011;56589;51.992;5.924;2023-07-20T09:05:54;0.70;;;0.30;;
69401;SDS011;56589;51.992;5.924;2023-07-20T09:08:20;0.30;;;0.30;;
69401;SDS011;56589;51.992;5.924;2023-07-20T09:10:46;2.28;;;0.43;;
69401;SDS011;56589;51.992;5.924;2023-07-20T09:13:16;0.80;;;0.40;;
69401;SDS011;56589;51.992;5.924;2023-07-20T09:15:45;0.30;;;0.25;;
69401;SDS011;56589;51.992;5.924;2023-07-20T09:18:11;0.75;;;0.30;;
69401;SDS011;56589;51.992;5.924;2023-07-20T09:20:48;0.85;;;0.30;;
69401;SDS011;56589;51.992;5.924;2023-07-20T09:23:14;1.90;;;0.30;;
69401;SDS011;56589;51.992;5.924;2023-07-20T09:25:40;2.13;;;0.32;;
69401;SDS011;56589;51.992;5.924;2023-07-20T09:28:06;2.42;;;0.50;;
69401;SDS011;56589;51.992;5.924;2023-07-20T09:30:35;1.42;;;0.40;;
69401;SDS011;56589;51.992;5.924;2023-07-20T09:33:01;0.38;;;0.38;;
69401;SDS011;56589;51.992;5.924;2023-07-20T09:35:27;1.85;;;0.30;;
69401;SDS011;56589;51.992;5.924;2023-07-20T09:37:54;0.90;;;0.60;;
69401;SDS011;56589;51.992;5.924;2023-07-20T09:40:25;1.05;;;0.30;;
69401;SDS011;56589;51.992;5.924;2023-07-20T09:42:52;0.95;;;0.30;;
69401;SDS011;56589;51.992;5.924;2023-07-20T09:45:20;0.60;;;0.32;;
69401;SDS011;56589;51.992;5.924;2023-07-20T09:47:48;1.30;;;0.30;;
69401;SDS011;56589;51.992;5.924;2023-07-20T09:50:14;0.65;;;0.45;;
69401;SDS011;56589;51.992;5.924;2023-07-20T09:52:40;0.60;;;0.30;;
69401;SDS011;56589;51.992;5.924;2023-07-20T09:55:07;0.95;;;0.32;;
69401;SDS011;56589;51.992;5.924;2023-07-20T09:57:34;0.40;;;0.30;;
69401;SDS011;56589;51.992;5.924;2023-07-20T10:00:00;1.52;;;0.60;;
69401;SDS011;56589;51.992;5.924;2023-07-20T10:02:29;1.35;;;0.40;;
69401;SDS011;56589;51.992;5.924;2023-07-20T10:05:01;1.40;;;0.40;;
69401;SDS011;56589;51.992;5.924;2023-07-20T10:07:29;1.05;;;0.30;;
69401;SDS011;56589;51.992;5.924;2023-07-20T10:09:56;2.03;;;0.47;;
69401;SDS011;56589;51.992;5.924;2023-07-20T10:12:27;2.58;;;0.40;;
69401;SDS011;56589;51.992;5.924;2023-07-20T10:14:58;2.03;;;0.70;;
69401;SDS011;56589;51.992;5.924;2023-07-20T10:17:35;2.03;;;0.40;;
69401;SDS011;56589;51.992;5.924;2023-07-20T10:20:12;1.27;;;0.40;;
69401;SDS011;56589;51.992;5.924;2023-07-20T10:22:38;1.15;;;0.50;;
69401;SDS011;56589;51.992;5.924;2023-07-20T10:25:05;2.38;;;0.50;;
69401;SDS011;56589;51.992;5.924;2023-07-20T10:27:32;3.67;;;0.60;;
69401;SDS011;56589;51.992;5.924;2023-07-20T10:29:58;0.52;;;0.50;;
69401;SDS011;56589;51.992;5.924;2023-07-20T10:32:25;0.60;;;0.50;;
69401;SDS011;56589;51.992;5.924;2023-07-20T10:34:51;1.63;;;0.50;;
69401;SDS011;56589;51.992;5.924;2023-07-20T10:40:25;2.00;;;0.55;;
69401;SDS011;56589;51.992;5.924;2023-07-20T10:43:04;0.93;;;0.40;;
69401;SDS011;56589;51.992;5.924;2023-07-20T10:45:35;1.83;;;0.73;;
69401;SDS011;56589;51.992;5.924;2023-07-20T10:48:05;1.42;;;0.60;;
69401;SDS011;56589;51.992;5.924;2023-07-20T10:50:38;1.40;;;0.40;;
69401;SDS011;56589;51.992;5.924;2023-07-20T10:53:12;0.73;;;0.35;;
69401;SDS011;56589;51.992;5.924;2023-07-20T10:55:40;3.50;;;0.63;;
69401;SDS011;56589;51.992;5.924;2023-07-20T10:58:07;1.35;;;0.50;;
69401;SDS011;56589;51.992;5.924;2023-07-20T11:00:35;2.33;;;0.40;;
69401;SDS011;56589;51.992;5.924;2023-07-20T11:03:02;1.70;;;0.50;;
69401;SDS011;56589;51.992;5.924;2023-07-20T11:05:38;1.05;;;0.50;;
69401;SDS011;56589;51.992;5.924;2023-07-20T11:08:05;0.70;;;0.40;;
69401;SDS011;56589;51.992;5.924;2023-07-20T11:10:37;0.57;;;0.50;;
69401;SDS011;56589;51.992;5.924;2023-07-20T11:13:16;2.60;;;0.50;;
69401;SDS011;56589;51.992;5.924;2023-07-20T11:15:47;1.27;;;0.50;;
69401;SDS011;56589;51.992;5.924;2023-07-20T11:18:27;1.00;;;0.57;;
69401;SDS011;56589;51.992;5.924;2023-07-20T11:20:53;0.52;;;0.52;;
69401;SDS011;56589;51.992;5.924;2023-07-20T11:23:22;0.77;;;0.50;;
69401;SDS011;56589;51.992;5.924;2023-07-20T11:25:48;1.58;;;0.47;;
69401;SDS011;56589;51.992;5.924;2023-07-20T11:28:15;1.70;;;0.60;;
69401;SDS011;56589;51.992;5.924;2023-07-20T11:30:41;3.00;;;0.90;;
69401;SDS011;56589;51.992;5.924;2023-07-20T11:33:08;0.57;;;0.50;;
69401;SDS011;56589;51.992;5.924;2023-07-20T11:35:35;1.17;;;0.60;;
69401;SDS011;56589;51.992;5.924;2023-07-20T11:38:07;1.10;;;0.38;;
69401;SDS011;56589;51.992;5.924;2023-07-20T11:40:35;0.82;;;0.50;;
69401;SDS011;56589;51.992;5.924;2023-07-20T11:43:01;0.73;;;0.57;;
69401;SDS011;56589;51.992;5.924;2023-07-20T11:45:28;2.20;;;0.60;;
69401;SDS011;56589;51.992;5.924;2023-07-20T11:47:53;2.13;;;0.55;;
69401;SDS011;56589;51.992;5.924;2023-07-20T11:50:19;1.67;;;0.50;;
69401;SDS011;56589;51.992;5.924;2023-07-20T11:52:45;2.10;;;0.50;;
69401;SDS011;56589;51.992;5.924;2023-07-20T11:55:12;1.35;;;0.70;;
69401;SDS011;56589;51.992;5.924;2023-07-20T11:57:40;0.95;;;0.52;;
69401;SDS011;56589;51.992;5.924;2023-07-20T12:00:07;5.53;;;0.63;;
69401;SDS011;56589;51.992;5.924;2023-07-20T12:02:35;2.70;;;0.43;;
69401;SDS011;56589;51.992;5.924;2023-07-20T12:05:02;0.98;;;0.40;;
69401;SDS011;56589;51.992;5.924;2023-07-20T12:07:29;2.78;;;0.57;;
69401;SDS011;56589;51.992;5.924;2023-07-20T12:10:04;1.15;;;0.57;;
69401;SDS011;56589;51.992;5.924;2023-07-20T12:12:32;0.95;;;0.70;;
69401;SDS011;56589;51.992;5.924;2023-07-20T12:15:19;0.35;;;0.35;;
69401;SDS011;56589;51.992;5.924;2023-07-20T12:17:49;3.33;;;0.80;;
69401;SDS011;56589;51.992;5.924;2023-07-20T12:20:27;1.30;;;0.70;;
69401;SDS011;56589;51.992;5.924;2023-07-20T12:22:56;3.00;;;0.50;;
69401;SDS011;56589;51.992;5.924;2023-07-20T12:25:33;0.95;;;0.50;;
69401;SDS011;56589;51.992;5.924;2023-07-20T12:28:04;4.63;;;0.57;;
69401;SDS011;56589;51.992;5.924;2023-07-20T12:30:36;1.67;;;0.47;;
69401;SDS011;56589;51.992;5.924;2023-07-20T12:33:02;1.52;;;0.68;;
69401;SDS011;56589;51.992;5.924;2023-07-20T12:35:29;1.52;;;0.50;;
69401;SDS011;56589;51.992;5.924;2023-07-20T12:37:55;1.40;;;0.60;;
69401;SDS011;56589;51.992;5.924;2023-07-20T12:40:23;0.68;;;0.40;;
69401;SDS011;56589;51.992;5.924;2023-07-20T12:42:49;1.85;;;0.50;;
69401;SDS011;56589;51.992;5.924;2023-07-20T12:45:15;2.30;;;0.50;;
69401;SDS011;56589;51.992;5.924;2023-07-20T12:47:44;1.65;;;0.40;;
69401;SDS011;56589;51.992;5.924;2023-07-20T12:50:10;1.13;;;0.40;;
69401;SDS011;56589;51.992;5.924;2023-07-20T12:52:36;2.85;;;0.40;;
69401;SDS011;56589;51.992;5.924;2023-07-20T12:55:03;1.60;;;0.55;;
69401;SDS011;56589;51.992;5.924;2023-07-20T12:57:31;3.72;;;0.50;;
69401;SDS011;56589;51.992;5.924;2023-07-20T12:59:58;0.88;;;0.40;;
69401;SDS011;56589;51.992;5.924;2023-07-20T13:02:24;0.45;;;0.45;;
69401;SDS011;56589;51.992;5.924;2023-07-20T13:04:53;0.60;;;0.50;;
69401;SDS011;56589;51.992;5.924;2023-07-20T13:07:22;0.70;;;0.47;;
69401;SDS011;56589;51.992;5.924;2023-07-20T13:09:55;0.40;;;0.30;;
69401;SDS011;56589;51.992;5.924;2023-07-20T13:12:21;3.13;;;0.40;;
69401;SDS011;56589;51.992;5.924;2023-07-20T13:14:47;0.85;;;0.50;;
69401;SDS011;56589;51.992;5.924;2023-07-20T13:17:13;1.00;;;0.45;;
69401;SDS011;56589;51.992;5.924;2023-07-20T13:19:39;2.80;;;0.50;;
69401;SDS011;56589;51.992;5.924;2023-07-20T13:22:07;0.40;;;0.30;;
69401;SDS011;56589;51.992;5.924;2023-07-20T13:24:33;2.58;;;0.50;;
69401;SDS011;56589;51.992;5.924;2023-07-20T13:26:59;0.30;;;0.20;;
69401;SDS011;56589;51.992;5.924;2023-07-20T13:29:25;1.05;;;0.30;;
69401;SDS011;56589;51.992;5.924;2023-07-20T13:31:51;0.85;;;0.30;;
69401;SDS011;56589;51.992;5.924;2023-07-20T13:34:17;0.60;;;0.40;;
69401;SDS011;56589;51.992;5.924;2023-07-20T13:36:42;0.88;;;0.30;;
69401;SDS011;56589;51.992;5.924;2023-07-20T13:39:11;2.22;;;0.50;;
69401;SDS011;56589;51.992;5.924;2023-07-20T13:41:37;0.50;;;0.30;;
69401;SDS011;56589;51.992;5.924;2023-07-20T13:44:03;4.03;;;0.40;;
69401;SDS011;56589;51.992;5.924;2023-07-20T13:46:29;1.45;;;0.50;;
69401;SDS011;56589;51.992;5.924;2023-07-20T13:48:55;0.70;;;0.43;;
69401;SDS011;56589;51.992;5.924;2023-07-20T13:51:20;0.80;;;0.30;;
69401;SDS011;56589;51.992;5.924;2023-07-20T13:53:47;0.80;;;0.50;;
69401;SDS011;56589;51.992;5.924;2023-07-20T13:56:15;0.85;;;0.32;;
69401;SDS011;56589;51.992;5.924;2023-07-20T13:58:42;0.82;;;0.73;;
69401;SDS011;56589;51.992;5.924;2023-07-20T14:01:08;0.88;;;0.30;;
69401;SDS011;56589;51.992;5.924;2023-07-20T14:03:34;1.48;;;0.40;;
69401;SDS011;56589;51.992;5.924;2023-07-20T14:06:00;0.90;;;0.45;;
69401;SDS011;56589;51.992;5.924;2023-07-20T14:08:25;0.30;;;0.25;;
69401;SDS011;56589;51.992;5.924;2023-07-20T14:10:51;1.35;;;0.47;;
69401;SDS011;56589;51.992;5.924;2023-07-20T14:13:20;1.33;;;0.40;;
69401;SDS011;56589;51.992;5.924;2023-07-20T14:15:46;1.30;;;0.30;;
69401;SDS011;56589;51.992;5.924;2023-07-20T14:18:12;0.47;;;0.38;;
69401;SDS011;56589;51.992;5.924;2023-07-20T14:20:38;0.85;;;0.57;;
69401;SDS011;56589;51.992;5.924;2023-07-20T14:23:04;0.95;;;0.30;;
69401;SDS011;56589;51.992;5.924;2023-07-20T14:25:29;0.50;;;0.35;;
69401;SDS011;56589;51.992;5.924;2023-07-20T14:27:55;0.68;;;0.40;;
69401;SDS011;56589;51.992;5.924;2023-07-20T14:30:24;2.70;;;0.57;;
69401;SDS011;56589;51.992;5.924;2023-07-20T14:32:50;2.05;;;0.40;;
69401;SDS011;56589;51.992;5.924;2023-07-20T14:35:16;0.60;;;0.30;;
69401;SDS011;56589;51.992;5.924;2023-07-20T14:37:42;1.63;;;0.30;;
69401;SDS011;56589;51.992;5.924;2023-07-20T14:40:08;3.42;;;0.50;;
69401;SDS011;56589;51.992;5.924;2023-07-20T14:42:36;0.73;;;0.40;;
69401;SDS011;56589;51.992;5.924;2023-07-20T14:45:02;1.17;;;0.50;;
69401;SDS011;56589;51.992;5.924;2023-07-20T14:47:32;1.35;;;0.60;;
69401;SDS011;56589;51.992;5.924;2023-07-20T14:49:58;0.80;;;0.40;;
69401;SDS011;56589;51.992;5.924;2023-07-20T14:52:24;1.83;;;0.45;;